sensor_id;sensor_type;location;lat;lon;timestamp;pressure;altitude;pressure_sealevel;temperature;humidity
25130;BME280;13308;50.860;13.664;2022-08-05T04:40:34;96430.50;;;24.96;50.74
25130;BME280;13308;50.860;13.664;2022-08-05T04:43:00;96429.63;;;25.07;50.35
25130;BME280;13308;50.860;13.664;2022-08-05T04:45:25;96443.81;;;24.96;51.17
25130;BME280;13308;50.860;13.664;2022-08-05T04:47:50;96438.38;;;25.03;50.56
25130;BME280;13308;50.860;13.664;2022-08-05T04:50:16;96432.63;;;25.20;50.09
25130;BME280;13308;50.860;13.664;2022-08-05T04:52:43;96431.50;;;25.34;50.09
25130;BME280;13308;50.860;13.664;2022-08-05T04:55:09;96433.19;;;25.48;50.05
25130;BME280;13308;50.860;13.664;2022-08-05T04:57:34;96431.56;;;25.58;49.64
25130;BME280;13308;50.860;13.664;2022-08-05T04:59:59;96443.09;;;25.60;49.84
25130;BME280;13308;50.860;13.664;2022-08-05T05:02:25;96441.88;;;25.79;49.25
25130;BME280;13308;50.860;13.664;2022-08-05T05:04:51;96442.38;;;25.83;49.77
25130;BME280;13308;50.860;13.664;2022-08-05T05:07:16;96438.44;;;25.92;49.32
25130;BME280;13308;50.860;13.664;2022-08-05T05:09:42;96438.22;;;25.90;49.44
25130;BME280;13308;50.860;13.664;2022-08-05T05:12:07;96442.09;;;26.11;49.18
25130;BME280;13308;50.860;13.664;2022-08-05T05:14:33;96433.63;;;26.11;49.00
25130;BME280;13308;50.860;13.664;2022-08-05T05:16:59;96448.34;;;26.28;48.38
25130;BME280;13308;50.860;13.664;2022-08-05T05:19:24;96444.56;;;26.44;48.04
25130;BME280;13308;50.860;13.664;2022-08-05T05:21:49;96446.91;;;26.40;48.85
25130;BME280;13308;50.860;13.664;2022-08-05T05:24:15;96456.81;;;26.52;47.91
25130;BME280;13308;50.860;13.664;2022-08-05T05:26:40;96462.47;;;26.52;48.45
25130;BME280;13308;50.860;13.664;2022-08-05T05:29:06;96454.75;;;26.52;48.33
25130;BME280;13308;50.860;13.664;2022-08-05T05:31:31;96459.81;;;26.59;48.52
25130;BME280;13308;50.860;13.664;2022-08-05T05:33:56;96465.28;;;26.76;47.74
25130;BME280;13308;50.860;13.664;2022-08-05T05:36:22;96465.44;;;26.83;47.38
25130;BME280;13308;50.860;13.664;2022-08-05T05:38:47;96472.16;;;26.99;47.34
25130;BME280;13308;50.860;13.664;2022-08-05T05:41:13;96463.91;;;27.01;47.83
25130;BME280;13308;50.860;13.664;2022-08-05T05:43:38;96462.69;;;27.15;46.99
25130;BME280;13308;50.860;13.664;2022-08-05T05:46:03;96459.03;;;27.20;47.59
25130;BME280;13308;50.860;13.664;2022-08-05T05:48:29;96452.59;;;27.19;48.26
25130;BME280;13308;50.860;13.664;2022-08-05T05:50:54;96457.28;;;27.48;46.98
25130;BME280;13308;50.860;13.664;2022-08-05T05:53:19;96452.19;;;27.60;46.36
25130;BME280;13308;50.860;13.664;2022-08-05T05:55:45;96450.75;;;27.85;45.62
25130;BME280;13308;50.860;13.664;2022-08-05T05:58:10;96451.41;;;27.78;46.18
25130;BME280;13308;50.860;13.664;2022-08-05T06:00:36;96456.13;;;27.88;46.00
25130;BME280;13308;50.860;13.664;2022-08-05T06:03:01;96461.06;;;28.14;44.71
25130;BME280;13308;50.860;13.664;2022-08-05T06:05:27;96460.97;;;28.32;44.26
25130;BME280;13308;50.860;13.664;2022-08-05T06:07:52;96453.78;;;28.44;44.50
25130;BME280;13308;50.860;13.664;2022-08-05T06:10:18;96464.47;;;28.64;43.36
25130;BME280;13308;50.860;13.664;2022-08-05T06:12:43;96465.44;;;28.80;43.14
25130;BME280;13308;50.860;13.664;2022-08-05T06:15:09;96473.09;;;28.98;43.31
25130;BME280;13308;50.860;13.664;2022-08-05T06:17:35;96470.63;;;29.15;42.39
25130;BME280;13308;50.860;13.664;2022-08-05T06:20:00;96469.56;;;29.18;42.44
25130;BME280;13308;50.860;13.664;2022-08-05T06:22:31;96477.97;;;29.44;42.11
25130;BME280;13308;50.860;13.664;2022-08-05T06:24:57;96484.84;;;29.48;42.28
25130;BME280;13308;50.860;13.664;2022-08-05T06:27:23;96490.19;;;29.65;41.98
25130;BME280;13308;50.860;13.664;2022-08-05T06:29:48;96512.94;;;29.65;42.33
25130;BME280;13308;50.860;13.664;2022-08-05T06:32:13;96543.31;;;29.90;41.31
25130;BME280;13308;50.860;13.664;2022-08-05T06:34:39;96547.16;;;29.59;41.74
25130;BME280;13308;50.860;13.664;2022-08-05T06:37:05;96543.09;;;29.68;41.23
25130;BME280;13308;50.860;13.664;2022-08-05T06:39:30;96542.06;;;29.99;40.74
25130;BME280;13308;50.860;13.664;2022-08-05T06:41:56;96560.91;;;30.43;40.75
25130;BME280;13308;50.860;13.664;2022-08-05T06:44:22;96578.13;;;30.37;40.15
25130;BME280;13308;50.860;13.664;2022-08-05T06:46:47;96573.41;;;30.40;40.40
25130;BME280;13308;50.860;13.664;2022-08-05T06:49:13;96567.28;;;30.77;39.67
25130;BME280;13308;50.860;13.664;2022-08-05T06:51:38;96582.41;;;31.28;39.10
25130;BME280;13308;50.860;13.664;2022-08-05T06:54:03;96581.44;;;30.97;38.98
25130;BME280;13308;50.860;13.664;2022-08-05T06:56:30;96589.31;;;31.40;38.83
25130;BME280;13308;50.860;13.664;2022-08-05T06:58:55;96605.78;;;32.20;37.59
25130;BME280;13308;50.860;13.664;2022-08-05T07:01:21;96611.25;;;31.60;38.95
25130;BME280;13308;50.860;13.664;2022-08-05T07:03:47;96604.25;;;31.61;39.29
25130;BME280;13308;50.860;13.664;2022-08-05T07:06:12;96606.03;;;31.36;39.42
25130;BME280;13308;50.860;13.664;2022-08-05T07:08:38;96595.63;;;31.18;39.60
25130;BME280;13308;50.860;13.664;2022-08-05T07:11:04;96593.22;;;31.65;40.16
25130;BME280;13308;50.860;13.664;2022-08-05T07:13:33;96598.22;;;31.72;39.60
25130;BME280;13308;50.860;13.664;2022-08-05T07:16:17;96599.53;;;32.29;38.84
25130;BME280;13308;50.860;13.664;2022-08-05T07:19:01;96608.31;;;32.68;38.03
25130;BME280;13308;50.860;13.664;2022-08-05T07:21:27;96597.09;;;32.93;37.96
25130;BME280;13308;50.860;13.664;2022-08-05T07:23:52;96603.28;;;33.44;37.42
25130;BME280;13308;50.860;13.664;2022-08-05T07:26:17;96610.16;;;33.26;37.68
25130;BME280;13308;50.860;13.664;2022-08-05T07:28:43;96608.53;;;33.77;37.37
25130;BME280;13308;50.860;13.664;2022-08-05T07:31:08;96613.59;;;33.47;36.92
25130;BME280;13308;50.860;13.664;2022-08-05T07:33:34;96604.28;;;33.39;37.25
25130;BME280;13308;50.860;13.664;2022-08-05T07:35:59;96606.78;;;33.05;37.77
25130;BME280;13308;50.860;13.664;2022-08-05T07:38:25;96618.75;;;33.41;37.95
25130;BME280;13308;50.860;13.664;2022-08-05T07:40:50;96623.31;;;33.98;37.77
25130;BME280;13308;50.860;13.664;2022-08-05T07:43:16;96624.81;;;34.07;37.78
25130;BME280;13308;50.860;13.664;2022-08-05T07:45:42;96625.63;;;33.23;40.72
25130;BME280;13308;50.860;13.664;2022-08-05T07:48:10;96626.63;;;32.80;42.11
25130;BME280;13308;50.860;13.664;2022-08-05T07:50:36;96640.31;;;32.67;43.34
25130;BME280;13308;50.860;13.664;2022-08-05T07:53:02;96636.81;;;32.16;44.90
25130;BME280;13308;50.860;13.664;2022-08-05T07:55:27;96639.84;;;31.32;46.60
25130;BME280;13308;50.860;13.664;2022-08-05T07:57:53;96646.72;;;30.88;48.29
25130;BME280;13308;50.860;13.664;2022-08-05T08:00:18;96652.84;;;31.48;47.48
25130;BME280;13308;50.860;13.664;2022-08-05T08:02:44;96669.53;;;32.22;45.90
25130;BME280;13308;50.860;13.664;2022-08-05T08:05:10;96670.38;;;31.52;47.12
25130;BME280;13308;50.860;13.664;2022-08-05T08:07:35;96657.41;;;30.13;48.77
25130;BME280;13308;50.860;13.664;2022-08-05T08:10:01;96652.84;;;29.97;49.49
25130;BME280;13308;50.860;13.664;2022-08-05T08:12:26;96641.94;;;29.75;50.63
25130;BME280;13308;50.860;13.664;2022-08-05T08:14:52;96647.69;;;29.36;51.52
25130;BME280;13308;50.860;13.664;2022-08-05T08:17:17;96660.16;;;29.20;51.80
25130;BME280;13308;50.860;13.664;2022-08-05T08:19:43;96669.41;;;29.72;50.54
25130;BME280;13308;50.860;13.664;2022-08-05T08:22:10;96673.00;;;29.86;49.51
25130;BME280;13308;50.860;13.664;2022-08-05T08:24:36;96677.91;;;29.98;50.14
25130;BME280;13308;50.860;13.664;2022-08-05T08:27:02;96679.81;;;29.57;49.26
25130;BME280;13308;50.860;13.664;2022-08-05T08:29:28;96672.28;;;29.59;49.08
25130;BME280;13308;50.860;13.664;2022-08-05T08:31:53;96684.19;;;29.19;51.37
25130;BME280;13308;50.860;13.664;2022-08-05T08:34:20;96688.69;;;29.53;50.60
25130;BME280;13308;50.860;13.664;2022-08-05T08:36:46;96697.22;;;30.26;49.40
25130;BME280;13308;50.860;13.664;2022-08-05T08:39:11;96698.19;;;30.28;49.95
25130;BME280;13308;50.860;13.664;2022-08-05T08:41:41;96697.91;;;30.73;49.45
25130;BME280;13308;50.860;13.664;2022-08-05T08:44:08;96696.16;;;30.16;49.66
25130;BME280;13308;50.860;13.664;2022-08-05T08:46:34;96699.63;;;30.76;48.89
25130;BME280;13308;50.860;13.664;2022-08-05T08:49:02;96709.00;;;31.25;47.87
25130;BME280;13308;50.860;13.664;2022-08-05T08:51:31;96710.88;;;31.02;47.54
25130;BME280;13308;50.860;13.664;2022-08-05T08:53:56;96695.00;;;30.32;49.69
25130;BME280;13308;50.860;13.664;2022-08-05T08:56:22;96678.41;;;30.64;48.42
25130;BME280;13308;50.860;13.664;2022-08-05T08:58:48;96663.25;;;30.28;49.81
25130;BME280;13308;50.860;13.664;2022-08-05T09:01:14;96667.84;;;31.13;49.23
25130;BME280;13308;50.860;13.664;2022-08-05T09:03:39;96672.31;;;31.29;47.97
25130;BME280;13308;50.860;13.664;2022-08-05T09:06:05;96682.16;;;31.00;47.49
25130;BME280;13308;50.860;13.664;2022-08-05T09:08:31;96679.13;;;30.98;49.83
25130;BME280;13308;50.860;13.664;2022-08-05T09:10:57;96680.53;;;32.03;47.32
25130;BME280;13308;50.860;13.664;2022-08-05T09:13:22;96680.25;;;31.51;46.84
25130;BME280;13308;50.860;13.664;2022-08-05T09:15:48;96669.22;;;31.47;46.30
25130;BME280;13308;50.860;13.664;2022-08-05T09:18:13;96687.59;;;31.67;46.19
25130;BME280;13308;50.860;13.664;2022-08-05T09:20:39;96685.78;;;31.49;46.41
25130;BME280;13308;50.860;13.664;2022-08-05T09:23:15;96678.53;;;31.76;46.45
25130;BME280;13308;50.860;13.664;2022-08-05T09:25:44;96684.63;;;31.80;45.77
25130;BME280;13308;50.860;13.664;2022-08-05T09:28:15;96681.94;;;32.25;45.21
25130;BME280;13308;50.860;13.664;2022-08-05T09:31:07;96680.13;;;31.64;46.64
25130;BME280;13308;50.860;13.664;2022-08-05T09:33:46;96687.53;;;31.59;45.94
25130;BME280;13308;50.860;13.664;2022-08-05T09:36:12;96689.06;;;31.60;46.15
25130;BME280;13308;50.860;13.664;2022-08-05T09:38:37;96692.09;;;31.55;46.99
25130;BME280;13308;50.860;13.664;2022-08-05T09:41:04;96687.78;;;31.69;46.28
25130;BME280;13308;50.860;13.664;2022-08-05T09:43:33;96690.72;;;31.76;46.10
25130;BME280;13308;50.860;13.664;2022-08-05T09:45:59;96701.63;;;31.93;46.46
25130;BME280;13308;50.860;13.664;2022-08-05T09:48:29;96688.81;;;31.79;46.78
25130;BME280;13308;50.860;13.664;2022-08-05T09:50:59;96684.47;;;32.36;46.81
25130;BME280;13308;50.860;13.664;2022-08-05T09:53:25;96684.78;;;32.17;46.14
25130;BME280;13308;50.860;13.664;2022-08-05T09:55:57;96692.31;;;32.00;45.50
25130;BME280;13308;50.860;13.664;2022-08-05T09:58:23;96699.25;;;31.48;46.85
25130;BME280;13308;50.860;13.664;2022-08-05T10:03:23;96692.13;;;31.98;45.80
25130;BME280;13308;50.860;13.664;2022-08-05T10:06:00;96688.09;;;31.58;46.17
25130;BME280;13308;50.860;13.664;2022-08-05T10:08:26;96698.41;;;31.68;45.90
25130;BME280;13308;50.860;13.664;2022-08-05T10:10:52;96690.16;;;31.50;46.84
25130;BME280;13308;50.860;13.664;2022-08-05T10:15:56;96679.53;;;31.86;46.30
25130;BME280;13308;50.860;13.664;2022-08-05T10:18:23;96689.22;;;32.33;45.87
25130;BME280;13308;50.860;13.664;2022-08-05T10:20:53;96685.84;;;31.64;47.63
25130;BME280;13308;50.860;13.664;2022-08-05T10:23:26;96692.16;;;31.70;47.12
25130;BME280;13308;50.860;13.664;2022-08-05T10:25:54;96692.94;;;31.70;47.73
25130;BME280;13308;50.860;13.664;2022-08-05T10:28:19;96690.59;;;31.61;47.68
25130;BME280;13308;50.860;13.664;2022-08-05T10:30:44;96692.88;;;32.56;45.93
25130;BME280;13308;50.860;13.664;2022-08-05T10:33:10;96692.13;;;32.56;46.43
25130;BME280;13308;50.860;13.664;2022-08-05T10:35:36;96672.38;;;32.88;45.93
25130;BME280;13308;50.860;13.664;2022-08-05T10:38:03;96679.06;;;32.98;45.31
25130;BME280;13308;50.860;13.664;2022-08-05T10:46:11;96689.88;;;33.44;44.39
25130;BME280;13308;50.860;13.664;2022-08-05T10:48:39;96691.16;;;33.66;44.48
25130;BME280;13308;50.860;13.664;2022-08-05T10:51:18;96689.81;;;33.74;43.96
25130;BME280;13308;50.860;13.664;2022-08-05T10:56:20;96687.84;;;33.99;42.59
25130;BME280;13308;50.860;13.664;2022-08-05T11:01:26;96683.00;;;33.17;43.76
25130;BME280;13308;50.860;13.664;2022-08-05T11:06:31;96684.78;;;33.28;43.28
25130;BME280;13308;50.860;13.664;2022-08-05T11:09:16;96690.25;;;33.26;43.40
25130;BME280;13308;50.860;13.664;2022-08-05T11:11:42;96693.25;;;33.73;43.13
25130;BME280;13308;50.860;13.664;2022-08-05T11:14:10;96695.75;;;34.23;42.79
25130;BME280;13308;50.860;13.664;2022-08-05T11:16:36;96701.13;;;34.59;40.89
25130;BME280;13308;50.860;13.664;2022-08-05T11:19:29;96701.09;;;34.27;41.87
25130;BME280;13308;50.860;13.664;2022-08-05T11:21:55;96703.25;;;34.51;41.40
25130;BME280;13308;50.860;13.664;2022-08-05T11:24:42;96706.31;;;34.53;40.90
25130;BME280;13308;50.860;13.664;2022-08-05T11:27:30;96712.41;;;34.89;41.20
25130;BME280;13308;50.860;13.664;2022-08-05T11:29:59;96710.25;;;34.65;41.71
25130;BME280;13308;50.860;13.664;2022-08-05T11:32:26;96711.06;;;34.90;40.85
25130;BME280;13308;50.860;13.664;2022-08-05T11:34:52;96698.72;;;34.40;41.31
25130;BME280;13308;50.860;13.664;2022-08-05T11:40:17;96717.91;;;34.62;39.22
25130;BME280;13308;50.860;13.664;2022-08-05T11:42:44;96714.84;;;34.28;39.54
25130;BME280;13308;50.860;13.664;2022-08-05T11:45:10;96706.78;;;34.34;39.63
25130;BME280;13308;50.860;13.664;2022-08-05T11:47:36;96707.31;;;34.80;40.50
25130;BME280;13308;50.860;13.664;2022-08-05T11:50:02;96706.03;;;33.72;40.87
25130;BME280;13308;50.860;13.664;2022-08-05T11:52:28;96712.50;;;33.87;41.70
25130;BME280;13308;50.860;13.664;2022-08-05T11:54:53;96703.34;;;34.36;40.13
25130;BME280;13308;50.860;13.664;2022-08-05T11:57:19;96708.50;;;34.37;40.07
25130;BME280;13308;50.860;13.664;2022-08-05T11:59:44;96706.72;;;35.06;40.01
25130;BME280;13308;50.860;13.664;2022-08-05T12:02:10;96709.66;;;35.22;39.23
25130;BME280;13308;50.860;13.664;2022-08-05T12:04:46;96704.06;;;34.44;39.15
25130;BME280;13308;50.860;13.664;2022-08-05T12:07:14;96705.38;;;34.82;40.00
25130;BME280;13308;50.860;13.664;2022-08-05T12:09:48;96700.50;;;34.60;39.23
25130;BME280;13308;50.860;13.664;2022-08-05T12:12:22;96693.72;;;34.48;39.68
25130;BME280;13308;50.860;13.664;2022-08-05T12:14:48;96699.56;;;35.38;38.23
25130;BME280;13308;50.860;13.664;2022-08-05T12:17:14;96690.16;;;35.96;38.83
25130;BME280;13308;50.860;13.664;2022-08-05T12:19:52;96683.69;;;36.39;36.38
25130;BME280;13308;50.860;13.664;2022-08-05T12:22:26;96682.19;;;36.38;35.89
25130;BME280;13308;50.860;13.664;2022-08-05T12:24:51;96680.53;;;37.07;34.17
25130;BME280;13308;50.860;13.664;2022-08-05T12:27:27;96685.91;;;37.11;34.82
25130;BME280;13308;50.860;13.664;2022-08-05T12:30:03;96676.06;;;37.14;35.63
25130;BME280;13308;50.860;13.664;2022-08-05T12:32:33;96677.78;;;37.36;35.71
25130;BME280;13308;50.860;13.664;2022-08-05T12:35:01;96671.38;;;36.29;35.27
25130;BME280;13308;50.860;13.664;2022-08-05T12:37:27;96668.06;;;35.72;37.06
25130;BME280;13308;50.860;13.664;2022-08-05T12:39:56;96668.56;;;35.78;36.40
25130;BME280;13308;50.860;13.664;2022-08-05T12:42:21;96665.28;;;35.24;36.73
25130;BME280;13308;50.860;13.664;2022-08-05T12:44:47;96673.16;;;36.08;36.00
25130;BME280;13308;50.860;13.664;2022-08-05T12:47:12;96668.09;;;36.95;34.81
25130;BME280;13308;50.860;13.664;2022-08-05T12:49:42;96661.47;;;37.02;35.18
25130;BME280;13308;50.860;13.664;2022-08-05T12:52:17;96664.00;;;37.44;34.34
25130;BME280;13308;50.860;13.664;2022-08-05T12:54:44;96663.13;;;38.36;33.27
25130;BME280;13308;50.860;13.664;2022-08-05T12:57:10;96664.91;;;38.60;32.52
25130;BME280;13308;50.860;13.664;2022-08-05T12:59:44;96670.31;;;38.16;32.08
25130;BME280;13308;50.860;13.664;2022-08-05T13:02:11;96660.31;;;37.98;32.20
25130;BME280;13308;50.860;13.664;2022-08-05T13:04:39;96662.47;;;38.66;32.89
25130;BME280;13308;50.860;13.664;2022-08-05T13:07:12;96662.66;;;39.39;32.77
25130;BME280;13308;50.860;13.664;2022-08-05T13:09:40;96664.91;;;39.10;31.76
25130;BME280;13308;50.860;13.664;2022-08-05T13:12:11;96658.19;;;39.17;32.12
25130;BME280;13308;50.860;13.664;2022-08-05T13:14:42;96656.28;;;39.00;31.56
25130;BME280;13308;50.860;13.664;2022-08-05T13:19:40;96644.91;;;39.54;31.16
25130;BME280;13308;50.860;13.664;2022-08-05T13:22:06;96657.09;;;39.73;30.05
25130;BME280;13308;50.860;13.664;2022-08-05T13:24:31;96655.19;;;39.87;30.06
25130;BME280;13308;50.860;13.664;2022-08-05T13:26:56;96666.16;;;40.00;29.73
25130;BME280;13308;50.860;13.664;2022-08-05T13:29:22;96663.28;;;40.00;29.78
25130;BME280;13308;50.860;13.664;2022-08-05T13:31:47;96662.88;;;39.94;29.70
25130;BME280;13308;50.860;13.664;2022-08-05T13:34:13;96668.09;;;40.07;29.20
25130;BME280;13308;50.860;13.664;2022-08-05T13:36:38;96674.09;;;40.76;29.75
25130;BME280;13308;50.860;13.664;2022-08-05T13:39:05;96677.06;;;41.11;29.02
25130;BME280;13308;50.860;13.664;2022-08-05T13:41:31;96666.31;;;40.67;29.44
25130;BME280;13308;50.860;13.664;2022-08-05T13:43:56;96667.22;;;40.37;29.77
25130;BME280;13308;50.860;13.664;2022-08-05T13:46:23;96662.44;;;39.16;30.94
25130;BME280;13308;50.860;13.664;2022-08-05T13:48:48;96660.31;;;38.76;31.64
25130;BME280;13308;50.860;13.664;2022-08-05T13:51:14;96661.97;;;38.01;32.76
25130;BME280;13308;50.860;13.664;2022-08-05T13:53:40;96652.94;;;37.40;33.58
25130;BME280;13308;50.860;13.664;2022-08-05T13:56:06;96647.31;;;36.87;33.54
25130;BME280;13308;50.860;13.664;2022-08-05T13:58:31;96631.59;;;34.83;35.49
25130;BME280;13308;50.860;13.664;2022-08-05T14:00:57;96630.72;;;35.72;34.80
25130;BME280;13308;50.860;13.664;2022-08-05T14:03:22;96639.31;;;35.89;35.16
25130;BME280;13308;50.860;13.664;2022-08-05T14:05:48;96632.28;;;36.43;34.29
25130;BME280;13308;50.860;13.664;2022-08-05T14:08:14;96625.47;;;35.95;34.73
25130;BME280;13308;50.860;13.664;2022-08-05T14:10:39;96637.50;;;36.28;34.25
25130;BME280;13308;50.860;13.664;2022-08-05T14:13:05;96628.19;;;36.46;35.29
25130;BME280;13308;50.860;13.664;2022-08-05T14:15:32;96638.97;;;35.85;35.04
25130;BME280;13308;50.860;13.664;2022-08-05T14:17:58;96635.06;;;36.24;34.46
25130;BME280;13308;50.860;13.664;2022-08-05T14:20:23;96646.03;;;36.71;34.46
25130;BME280;13308;50.860;13.664;2022-08-05T14:22:48;96647.16;;;37.21;33.73
25130;BME280;13308;50.860;13.664;2022-08-05T14:25:14;96643.59;;;38.84;32.73
25130;BME280;13308;50.860;13.664;2022-08-05T14:27:39;96648.00;;;39.46;31.70
25130;BME280;13308;50.860;13.664;2022-08-05T14:30:05;96648.28;;;40.13;31.41
25130;BME280;13308;50.860;13.664;2022-08-05T14:32:30;96649.31;;;39.55;30.31
25130;BME280;13308;50.860;13.664;2022-08-05T14:34:56;96637.66;;;39.22;30.38
25130;BME280;13308;50.860;13.664;2022-08-05T14:37:22;96643.13;;;39.49;29.93
25130;BME280;13308;50.860;13.664;2022-08-05T14:39:48;96646.31;;;39.74;29.32
25130;BME280;13308;50.860;13.664;2022-08-05T14:42:13;96647.97;;;40.09;29.49
25130;BME280;13308;50.860;13.664;2022-08-05T14:44:38;96647.66;;;39.21;29.36
25130;BME280;13308;50.860;13.664;2022-08-05T14:47:04;96637.81;;;39.45;29.32
25130;BME280;13308;50.860;13.664;2022-08-05T14:49:29;96634.75;;;39.74;28.64
25130;BME280;13308;50.860;13.664;2022-08-05T14:51:54;96634.88;;;40.41;28.44
25130;BME280;13308;50.860;13.664;2022-08-05T14:54:20;96635.34;;;39.93;29.14
25130;BME280;13308;50.860;13.664;2022-08-05T14:56:45;96620.88;;;38.69;29.41
25130;BME280;13308;50.860;13.664;2022-08-05T14:59:11;96625.03;;;38.47;30.28
25130;BME280;13308;50.860;13.664;2022-08-05T15:01:36;96621.34;;;37.97;31.10
25130;BME280;13308;50.860;13.664;2022-08-05T15:04:02;96620.47;;;38.94;30.13
25130;BME280;13308;50.860;13.664;2022-08-05T15:06:27;96612.50;;;37.95;31.04
25130;BME280;13308;50.860;13.664;2022-08-05T15:08:53;96611.69;;;38.82;31.15
25130;BME280;13308;50.860;13.664;2022-08-05T15:11:23;96620.03;;;39.18;30.08
25130;BME280;13308;50.860;13.664;2022-08-05T15:13:48;96621.78;;;39.54;29.26
25130;BME280;13308;50.860;13.664;2022-08-05T15:16:13;96630.72;;;40.32;29.07
25130;BME280;13308;50.860;13.664;2022-08-05T15:18:39;96627.72;;;39.77;29.02
25130;BME280;13308;50.860;13.664;2022-08-05T15:21:04;96635.38;;;40.05;29.29
25130;BME280;13308;50.860;13.664;2022-08-05T15:23:30;96624.75;;;38.83;30.34
25130;BME280;13308;50.860;13.664;2022-08-05T15:25:55;96620.97;;;37.36;31.48
25130;BME280;13308;50.860;13.664;2022-08-05T15:28:20;96611.28;;;36.50;32.92
25130;BME280;13308;50.860;13.664;2022-08-05T15:30:46;96608.41;;;35.80;33.98
25130;BME280;13308;50.860;13.664;2022-08-05T15:33:12;96611.25;;;35.46;34.28
25130;BME280;13308;50.860;13.664;2022-08-05T15:35:37;96616.28;;;35.21;34.84
25130;BME280;13308;50.860;13.664;2022-08-05T15:38:03;96610.16;;;34.84;35.90
25130;BME280;13308;50.860;13.664;2022-08-05T15:40:28;96608.28;;;34.30;36.90
25130;BME280;13308;50.860;13.664;2022-08-05T15:42:53;96607.47;;;33.97;36.86
25130;BME280;13308;50.860;13.664;2022-08-05T15:45:19;96611.56;;;33.87;37.84
25130;BME280;13308;50.860;13.664;2022-08-05T15:47:44;96607.25;;;34.03;37.96
25130;BME280;13308;50.860;13.664;2022-08-05T15:50:11;96613.72;;;34.11;37.69
25130;BME280;13308;50.860;13.664;2022-08-05T15:52:38;96616.53;;;34.50;37.26
25130;BME280;13308;50.860;13.664;2022-08-05T15:55:05;96612.00;;;34.40;37.02
25130;BME280;13308;50.860;13.664;2022-08-05T15:57:31;96608.34;;;34.47;37.50
25130;BME280;13308;50.860;13.664;2022-08-05T15:59:56;96611.44;;;34.90;37.51
25130;BME280;13308;50.860;13.664;2022-08-05T16:02:22;96606.78;;;34.78;37.07
25130;BME280;13308;50.860;13.664;2022-08-05T16:04:47;96613.66;;;35.24;35.87
25130;BME280;13308;50.860;13.664;2022-08-05T16:07:13;96613.41;;;35.04;36.41
25130;BME280;13308;50.860;13.664;2022-08-05T16:09:38;96616.66;;;34.60;37.30
25130;BME280;13308;50.860;13.664;2022-08-05T16:12:05;96615.06;;;34.66;37.94
25130;BME280;13308;50.860;13.664;2022-08-05T16:14:31;96612.38;;;34.92;37.28
25130;BME280;13308;50.860;13.664;2022-08-05T16:16:56;96625.22;;;35.08;37.57
25130;BME280;13308;50.860;13.664;2022-08-05T16:19:22;96626.75;;;35.09;36.67
25130;BME280;13308;50.860;13.664;2022-08-05T16:21:47;96623.44;;;35.38;36.25
25130;BME280;13308;50.860;13.664;2022-08-05T16:24:13;96631.06;;;35.18;36.27
25130;BME280;13308;50.860;13.664;2022-08-05T16:26:55;96630.41;;;34.86;36.86
25130;BME280;13308;50.860;13.664;2022-08-05T16:29:21;96629.88;;;35.04;36.90
25130;BME280;13308;50.860;13.664;2022-08-05T16:31:47;96630.16;;;34.67;37.83
25130;BME280;13308;50.860;13.664;2022-08-05T16:34:12;96623.75;;;34.83;37.54
25130;BME280;13308;50.860;13.664;2022-08-05T16:36:38;96632.25;;;34.66;37.90
25130;BME280;13308;50.860;13.664;2022-08-05T16:39:03;96637.47;;;34.36;38.76
25130;BME280;13308;50.860;13.664;2022-08-05T16:41:29;96647.00;;;33.99;38.68
25130;BME280;13308;50.860;13.664;2022-08-05T16:43:54;96643.50;;;34.08;39.08
25130;BME280;13308;50.860;13.664;2022-08-05T16:46:19;96646.34;;;33.61;39.68
25130;BME280;13308;50.860;13.664;2022-08-05T16:48:44;96652.13;;;33.46;40.41
25130;BME280;13308;50.860;13.664;2022-08-05T16:51:10;96651.38;;;33.23;41.03
25130;BME280;13308;50.860;13.664;2022-08-05T16:53:36;96659.00;;;33.13;41.13
25130;BME280;13308;50.860;13.664;2022-08-05T16:56:01;96656.94;;;32.76;41.83
25130;BME280;13308;50.860;13.664;2022-08-05T16:58:27;96667.19;;;32.64;42.22
25130;BME280;13308;50.860;13.664;2022-08-05T17:00:52;96672.31;;;32.58;42.45
25130;BME280;13308;50.860;13.664;2022-08-05T17:03:17;96676.47;;;32.27;42.65
25130;BME280;13308;50.860;13.664;2022-08-05T17:05:43;96672.25;;;31.77;43.63
25130;BME280;13308;50.860;13.664;2022-08-05T17:08:08;96678.06;;;31.64;44.13
25130;BME280;13308;50.860;13.664;2022-08-05T17:10:34;96681.38;;;31.48;44.69
25130;BME280;13308;50.860;13.664;2022-08-05T17:13:00;96691.56;;;31.36;44.80
25130;BME280;13308;50.860;13.664;2022-08-05T17:15:25;96699.16;;;31.33;45.64
25130;BME280;13308;50.860;13.664;2022-08-05T17:17:50;96698.34;;;31.25;45.12
25130;BME280;13308;50.860;13.664;2022-08-05T17:20:16;96712.22;;;31.01;44.95
25130;BME280;13308;50.860;13.664;2022-08-05T17:22:41;96723.66;;;30.88;45.35
25130;BME280;13308;50.860;13.664;2022-08-05T17:25:07;96715.94;;;30.55;46.40
25130;BME280;13308;50.860;13.664;2022-08-05T17:27:32;96718.31;;;30.30;46.56
25130;BME280;13308;50.860;13.664;2022-08-05T17:29:58;96725.94;;;30.02;46.88
25130;BME280;13308;50.860;13.664;2022-08-05T17:32:23;96726.09;;;29.57;46.75
